createdAt,value
2023-02-25T00:04:12.317Z,0.04
2023-02-25T00:07:08.364Z,0.02
2023-02-25T00:12:17.532Z,0.03
2023-02-25T00:14:30.766Z,0.02
2023-02-25T00:29:11.751Z,0.03
2023-02-25T00:53:38.375Z,0.02
2023-02-25T00:56:02.532Z,0.03
2023-02-25T01:10:43.885Z,0.04
2023-02-25T01:28:49.569Z,0.03
2023-02-25T01:40:48.834Z,0.04
2023-02-25T02:02:09.827Z,0.03
2023-02-25T02:29:26.884Z,0.02
2023-02-25T02:46:53.248Z,0.03
2023-02-25T03:09:21.806Z,0.02
2023-02-25T03:14:33.478Z,0.03
2023-02-25T03:18:48.840Z,0.02
2023-02-25T03:26:33.592Z,0.03
2023-02-25T03:53:35.010Z,0.04
2023-02-25T04:05:31.363Z,0.03
2023-02-25T04:08:02.843Z,0.04
2023-02-25T04:10:20.210Z,0.05
2023-02-25T04:12:23.412Z,0.07
2023-02-25T04:15:15.102Z,0.04
2023-02-25T04:30:37.132Z,0.03
2023-02-25T04:32:52.459Z,0.04
2023-02-25T04:34:53.862Z,0.03
2023-02-25T04:40:19.586Z,0.02
2023-02-25T05:12:31.275Z,0.03
2023-02-25T05:14:57.512Z,0.04
2023-02-25T05:17:09.568Z,0.03
2023-02-25T05:28:48.345Z,0.04
2023-02-25T05:34:19.564Z,0.05
2023-02-25T05:36:43.795Z,0.07
2023-02-25T05:38:54.135Z,0.08
2023-02-25T05:41:52.799Z,0.11
2023-02-25T05:44:37.552Z,0.18
2023-02-25T05:47:08.170Z,0.31
2023-02-25T05:49:24.495Z,0.4
2023-02-25T05:51:26.959Z,0.53
2023-02-25T05:54:17.781Z,0.75
2023-02-25T05:56:54.462Z,1.51
2023-02-25T05:59:16.985Z,1.91
2023-02-25T06:01:25.602Z,2.96
2023-02-25T06:04:22.513Z,4.6
2023-02-25T06:07:05.300Z,7.19
2023-02-25T06:09:34.116Z,10.28
2023-02-25T06:11:49.072Z,11.61
2023-02-25T06:13:49.344Z,16.65
2023-02-25T06:16:38.046Z,24.13
2023-02-25T06:19:12.872Z,34.46
2023-02-25T06:21:33.630Z,35.57
2023-02-25T06:23:40.612Z,38.77
2023-02-25T06:26:35.676Z,63.88
2023-02-25T06:29:17.937Z,95.84
2023-02-25T06:31:43.714Z,82.32
2023-02-25T06:33:56.718Z,79.5
2023-02-25T06:35:55.480Z,66.48
2023-02-25T06:38:42.746Z,78.62
2023-02-25T06:41:15.997Z,80.24
2023-02-25T06:43:35.176Z,108.72
2023-02-25T06:45:40.033Z,130.84
2023-02-25T06:48:33.510Z,179.1
2023-02-25T06:51:12.832Z,211.4
2023-02-25T06:53:37.980Z,251.4
2023-02-25T06:55:49.126Z,289.6
2023-02-25T06:57:46.224Z,285.4
2023-02-25T07:00:31.612Z,293.1
2023-02-25T07:03:02.817Z,299.6
2023-02-25T07:05:20.166Z,251.2
2023-02-25T07:07:22.909Z,279.1
2023-02-25T07:10:14.404Z,240
2023-02-25T07:12:51.989Z,222.1
2023-02-25T07:15:15.506Z,229.6
2023-02-25T07:17:24.628Z,230.2
2023-02-25T07:20:22.390Z,219.2
2023-02-25T07:23:05.973Z,271
2023-02-25T07:25:35.550Z,246.4
2023-02-25T07:27:50.886Z,314.8
2023-02-25T07:29:52.538Z,286.3
2023-02-25T07:32:42.218Z,272.5
2023-02-25T07:35:17.709Z,280.4
2023-02-25T07:37:39.379Z,323.4
2023-02-25T07:39:47.739Z,389.6
2023-02-25T07:42:42.889Z,347.8
2023-02-25T07:45:24.829Z,325.5
2023-02-25T07:47:52.657Z,282.2
2023-02-25T07:50:06.285Z,215.6
2023-02-25T07:52:05.978Z,207.7
2023-02-25T07:54:54.008Z,228.8
2023-02-25T07:57:27.883Z,251.1
2023-02-25T07:59:47.230Z,256.9
2023-02-25T08:01:53.036Z,355.8
2023-02-25T08:04:47.546Z,409.2
2023-02-25T08:07:27.872Z,436.1
2023-02-25T08:09:53.192Z,376.6
2023-02-25T08:12:05.113Z,416.3
2023-02-25T08:14:02.892Z,414.7
2023-02-25T08:16:49.213Z,364.6
2023-02-25T08:19:21.406Z,318.1
2023-02-25T08:21:39.430Z,321.1
2023-02-25T08:23:43.501Z,338.4
2023-02-25T08:26:35.881Z,461.2
2023-02-25T08:29:14.127Z,483.8
2023-02-25T08:31:38.344Z,460.3
2023-02-25T08:33:48.439Z,450.7
2023-02-25T08:36:46.939Z,429.7
2023-02-25T08:39:31.352Z,388
2023-02-25T08:42:01.843Z,462.5
2023-02-25T08:44:18.209Z,459
2023-02-25T08:46:21.261Z,487.3
2023-02-25T08:49:11.144Z,620.8
2023-02-25T08:51:47.312Z,677.1
2023-02-25T08:54:09.728Z,821.4
2023-02-25T08:56:18.187Z,849.6
2023-02-25T08:59:15.004Z,809.9
2023-02-25T09:01:57.802Z,941.1
2023-02-25T09:04:26.208Z,1261.4
2023-02-25T09:06:40.738Z,1326
2023-02-25T09:08:41.192Z,1305.2
2023-02-25T09:11:29.898Z,1381.1
2023-02-25T09:14:04.748Z,1246.4
2023-02-25T09:16:25.508Z,1329.2
2023-02-25T09:18:32.035Z,1158
2023-02-25T09:21:27.053Z,1323.5
2023-02-25T09:24:08.010Z,1327.3
2023-02-25T09:26:34.780Z,1140.1
2023-02-25T09:28:47.474Z,1100.4
2023-02-25T09:30:46.213Z,1234.5
2023-02-25T09:33:33.251Z,1284.8
2023-02-25T09:36:06.153Z,1311.3
2023-02-25T09:38:25.098Z,1222
2023-02-25T09:40:29.951Z,1168.3
2023-02-25T09:43:22.538Z,1342.7
2023-02-25T09:46:01.709Z,1555.2
2023-02-25T09:48:26.754Z,1740
2023-02-25T09:50:37.664Z,2141
2023-02-25T09:52:34.603Z,2221
2023-02-25T09:55:19.879Z,2828
2023-02-25T09:57:50.949Z,2789
2023-02-25T10:00:07.847Z,2955
2023-02-25T10:02:10.975Z,2380
2023-02-25T10:05:02.089Z,2704
2023-02-25T10:07:39.216Z,2878
2023-02-25T10:10:02.704Z,2128
2023-02-25T10:12:11.522Z,2382
2023-02-25T10:15:08.800Z,2699
2023-02-25T10:17:52.195Z,2304
2023-02-25T10:20:21.450Z,1471.3
2023-02-25T10:22:36.550Z,1174.4
2023-02-25T10:24:37.807Z,1377.2
2023-02-25T10:27:27.253Z,1731
2023-02-25T10:30:02.759Z,1683
2023-02-25T10:34:30.711Z,1749
2023-02-25T10:37:26.200Z,1948
2023-02-25T10:40:07.639Z,2109
2023-02-25T10:42:35.186Z,2598
2023-02-25T10:44:48.571Z,2584
2023-02-25T10:46:47.887Z,2478
2023-02-25T10:49:35.626Z,2750
2023-02-25T10:52:09.255Z,2906
2023-02-25T10:54:28.780Z,2903
2023-02-25T10:56:34.373Z,2636
2023-02-25T10:59:30.268Z,2824
2023-02-25T11:02:07.885Z,3129
2023-02-25T11:04:33.416Z,3057
2023-02-25T11:06:45.075Z,2746
2023-02-25T11:08:42.600Z,2591
2023-02-25T11:11:30.988Z,2598
2023-02-25T11:14:00.104Z,2453
2023-02-25T11:16:17.813Z,2839
2023-02-25T11:18:21.333Z,2777
2023-02-25T11:21:13.294Z,2691
2023-02-25T11:23:51.181Z,2580
2023-02-25T11:26:14.611Z,2186
2023-02-25T11:28:24.474Z,1908
2023-02-25T11:31:23.017Z,1956
2023-02-25T11:34:06.534Z,1768
2023-02-25T11:36:36.439Z,931.8
2023-02-25T11:38:52.474Z,1080
2023-02-25T11:40:54.327Z,1579.5
2023-02-25T11:43:44.496Z,2211
2023-02-25T11:46:20.866Z,1326
2023-02-25T11:48:42.848Z,2461
2023-02-25T11:50:50.919Z,3825
2023-02-25T11:53:47.304Z,2089
2023-02-25T11:56:29.555Z,1488.6
2023-02-25T11:58:57.762Z,1358
2023-02-25T12:01:12.453Z,1320.3
2023-02-25T12:03:12.107Z,1386.2
2023-02-25T12:06:00.660Z,1566.7
2023-02-25T12:08:35.091Z,1491.2
2023-02-25T12:10:55.338Z,1313.2
2023-02-25T12:13:01.673Z,1463.6
2023-02-25T12:15:56.277Z,2078
2023-02-25T12:18:36.480Z,2226
2023-02-25T12:21:03.076Z,2107
2023-02-25T12:23:15.485Z,1856
2023-02-25T12:25:14.067Z,1811
2023-02-25T12:28:00.753Z,1701
2023-02-25T12:30:14.398Z,1282.2
2023-02-25T12:32:13.938Z,978.2
2023-02-25T12:35:01.562Z,1040
2023-02-25T12:37:35.436Z,1016
2023-02-25T12:39:55.093Z,866.8
2023-02-25T12:42:00.728Z,869.1
2023-02-25T12:44:54.755Z,839.3
2023-02-25T12:47:34.700Z,1139.2
2023-02-25T12:50:00.475Z,12590
2023-02-25T12:52:12.355Z,20040
2023-02-25T12:54:10.145Z,1930
2023-02-25T12:56:56.096Z,4389
2023-02-25T12:59:28.004Z,3608
2023-02-25T13:01:45.999Z,3948
2023-02-25T13:03:50.013Z,4279
2023-02-25T13:06:41.990Z,3399
2023-02-25T13:09:19.794Z,2933
2023-02-25T13:12:09.828Z,1930
2023-02-25T13:13:53.764Z,2140
2023-02-25T13:16:52.146Z,1347.8
2023-02-25T13:19:36.349Z,1241.9
2023-02-25T13:22:06.417Z,893.7
2023-02-25T13:24:22.366Z,1030.4
2023-02-25T13:26:24.505Z,1215.3
2023-02-25T13:29:14.877Z,1176.3
2023-02-25T13:31:51.151Z,1320.3
2023-02-25T13:34:13.507Z,1335.6
2023-02-25T13:36:21.703Z,1243.5
2023-02-25T13:39:18.087Z,1648
2023-02-25T13:42:00.565Z,1578.8
2023-02-25T13:44:28.942Z,3662
2023-02-25T13:46:43.261Z,1532.1
2023-02-25T13:48:43.749Z,1532.8
2023-02-25T13:51:32.493Z,1897
2023-02-25T13:54:07.082Z,1635.8
2023-02-25T13:56:27.492Z,2327
2023-02-25T13:58:33.955Z,1088
2023-02-25T14:01:28.308Z,1580.8
2023-02-25T14:04:08.900Z,2248
2023-02-25T14:06:35.569Z,1179.2
2023-02-25T14:08:48.122Z,919
2023-02-25T14:10:46.619Z,612.6
2023-02-25T14:13:33.536Z,310.8
2023-02-25T14:16:06.326Z,267.8
2023-02-25T14:18:25.004Z,318
2023-02-25T14:20:29.821Z,312.2
2023-02-25T14:23:22.789Z,179.3
2023-02-25T14:26:01.743Z,273.6
2023-02-25T14:28:26.568Z,450.8
2023-02-25T14:30:37.586Z,488.6
2023-02-25T14:32:34.397Z,577.7
2023-02-25T14:35:19.408Z,753.2
2023-02-25T14:37:50.555Z,882.2
2023-02-25T14:40:07.659Z,800.3
2023-02-25T14:42:10.521Z,776.9
2023-02-25T14:45:01.930Z,706.8
2023-02-25T14:47:39.173Z,994.2
2023-02-25T14:50:02.317Z,1722
2023-02-25T14:52:11.177Z,1827
2023-02-25T14:55:08.666Z,17080
2023-02-25T14:57:51.913Z,15472
2023-02-25T15:00:21.109Z,15042
2023-02-25T15:02:36.370Z,3473
2023-02-25T15:04:37.512Z,2786
2023-02-25T15:07:26.841Z,3852
2023-02-25T15:10:02.293Z,1648
2023-02-25T15:12:23.638Z,548.8
2023-02-25T15:14:30.837Z,494.8
2023-02-25T15:17:26.509Z,670
2023-02-25T15:20:07.981Z,647.2
2023-02-25T15:22:35.382Z,706.8
2023-02-25T15:24:48.717Z,809.9
2023-02-25T15:26:48.162Z,823.6
2023-02-25T15:29:35.871Z,654.2
2023-02-25T15:32:09.593Z,599.2
2023-02-25T15:34:29.044Z,630.5
2023-02-25T15:36:34.591Z,607.3
2023-02-25T15:39:28.311Z,741.1
2023-02-25T15:42:08.185Z,992.9
2023-02-25T15:44:33.557Z,1204.4
2023-02-25T15:46:45.183Z,1194.8
2023-02-25T15:48:42.926Z,1060.8
2023-02-25T15:51:28.887Z,917.7
2023-02-25T15:54:00.743Z,516.4
2023-02-25T15:56:18.500Z,453.2
2023-02-25T15:58:22.368Z,414.2
2023-02-25T16:01:14.542Z,381.2
2023-02-25T16:03:52.613Z,373.6
2023-02-25T16:06:16.819Z,533.9
2023-02-25T16:08:26.880Z,480.4
2023-02-25T16:11:25.348Z,430.7
2023-02-25T16:14:09.644Z,409.6
2023-02-25T16:16:39.996Z,398.4
2023-02-25T16:18:56.249Z,354.4
2023-02-25T16:20:58.712Z,316.3
2023-02-25T16:23:49.242Z,299.6
2023-02-25T16:26:25.867Z,294
2023-02-25T16:28:48.280Z,277.6
2023-02-25T16:30:56.819Z,276.8
2023-02-25T16:33:53.748Z,249.5
2023-02-25T16:36:35.732Z,222.8
2023-02-25T16:39:04.389Z,186.6
2023-02-25T16:41:19.271Z,164.8
2023-02-25T16:43:19.398Z,144.2
2023-02-25T16:46:08.447Z,128.76
2023-02-25T16:48:43.241Z,122.04
2023-02-25T16:51:05.264Z,100.44
2023-02-25T16:53:10.564Z,81.12
2023-02-25T16:56:05.628Z,65.5
2023-02-25T16:58:46.510Z,46.9
2023-02-25T17:01:13.281Z,35.82
2023-02-25T17:03:26.187Z,25.41
2023-02-25T17:05:24.911Z,17.8
2023-02-25T17:08:12.004Z,15.1
2023-02-25T17:10:45.170Z,11.24
2023-02-25T17:13:04.229Z,7.31
2023-02-25T17:15:09.079Z,5.43
2023-02-25T17:18:02.474Z,3.89
2023-02-25T17:20:41.772Z,2.38
2023-02-25T17:23:06.984Z,1.8
2023-02-25T17:25:18.061Z,1.35
2023-02-25T17:27:14.764Z,0.94
2023-02-25T17:30:00.173Z,0.52
2023-02-25T17:32:31.316Z,0.36
2023-02-25T17:34:48.452Z,0.23
2023-02-25T17:36:51.593Z,0.17
2023-02-25T17:39:43.053Z,0.11
2023-02-25T17:42:20.592Z,0.08
2023-02-25T17:44:43.928Z,0.07
2023-02-25T17:46:53.201Z,0.05
2023-02-25T17:49:50.877Z,0.04
2023-02-25T17:55:03.915Z,0.03
2023-02-25T18:07:07.696Z,0.04
2023-02-25T18:19:34.035Z,0.03
2023-02-25T18:26:55.817Z,0.02
2023-02-25T18:39:21.792Z,0.03
2023-02-25T18:41:33.726Z,0.02
2023-02-25T18:43:31.480Z,0.03
2023-02-25T19:03:17.853Z,0.02
2023-02-25T19:09:01.117Z,0.03
2023-02-25T19:18:40.248Z,0.02
2023-02-25T19:31:27.679Z,0.03
2023-02-25T19:33:56.145Z,0.02
2023-02-25T19:43:35.165Z,0.03
2023-02-25T19:48:02.448Z,0.02
2023-02-25T19:50:57.456Z,0.03
2023-02-25T19:53:38.497Z,0.02
2023-02-25T20:27:22.471Z,0.03
2023-02-25T20:34:34.351Z,0.02
2023-02-25T20:52:10.851Z,0.03
2023-02-25T21:07:02.013Z,0.02
2023-02-25T21:09:43.742Z,0.03
2023-02-25T21:14:25.366Z,0.02
2023-02-25T21:29:06.447Z,0.03
2023-02-25T21:31:46.685Z,0.02
2023-02-25T21:53:33.457Z,0.03
2023-02-25T21:58:07.758Z,0.02
2023-02-25T22:01:06.248Z,0.03
2023-02-25T22:06:20.805Z,0.02
2023-02-25T22:10:39.205Z,0.03
2023-02-25T22:20:37.152Z,0.02
2023-02-25T23:51:59.540Z,0.03
2023-02-25T23:54:15.995Z,0.02
2023-02-25T23:56:18.183Z,0.03
2023-02-25T23:59:08.772Z,0.04
